createdAt,value
2022-09-20T00:01:25.608Z,10.47
2022-09-20T00:03:55.307Z,10.44
2022-09-20T00:06:27.531Z,10.43
2022-09-20T00:08:55.251Z,10.44
2022-09-20T00:11:28.479Z,10.46
2022-09-20T00:13:57.352Z,10.45
2022-09-20T00:16:27.719Z,10.50
2022-09-20T00:18:56.291Z,10.45
2022-09-20T00:21:25.961Z,10.48
2022-09-20T00:23:53.338Z,10.45
2022-09-20T00:26:20.748Z,10.46
2022-09-20T00:28:47.308Z,10.41
2022-09-20T00:31:14.929Z,10.41
2022-09-20T00:34:00.398Z,10.36
2022-09-20T00:36:30.373Z,10.35
2022-09-20T00:38:58.099Z,10.32
2022-09-20T00:41:25.306Z,10.23
2022-09-20T00:43:52.645Z,10.21
2022-09-20T00:46:26.364Z,10.12
2022-09-20T00:48:59.133Z,10.07
2022-09-20T00:51:31.382Z,10.06
2022-09-20T00:54:02.346Z,10.01
2022-09-20T00:56:32.835Z,9.92
2022-09-20T00:59:22.540Z,9.83
2022-09-20T01:01:56.814Z,9.88
2022-09-20T01:04:27.429Z,9.89
2022-09-20T01:06:56.720Z,9.89
2022-09-20T01:09:23.251Z,9.92
2022-09-20T01:11:52.048Z,9.95
2022-09-20T01:14:19.661Z,10.00
2022-09-20T01:16:46.361Z,9.92
2022-09-20T01:19:27.997Z,10.06
2022-09-20T01:21:55.071Z,10.02
2022-09-20T01:24:38.985Z,10.06
2022-09-20T01:27:18.371Z,10.09
2022-09-20T01:29:51.307Z,10.15
2022-09-20T01:32:23.650Z,10.16
2022-09-20T01:34:56.830Z,10.14
2022-09-20T01:37:47.258Z,10.18
2022-09-20T01:40:50.891Z,10.04
2022-09-20T01:43:29.280Z,10.14
2022-09-20T01:46:02.246Z,10.13
2022-09-20T01:48:37.628Z,10.13
2022-09-20T01:51:34.186Z,10.12
2022-09-20T01:54:30.760Z,10.08
2022-09-20T01:57:37.765Z,9.96
2022-09-20T02:00:31.779Z,9.87
2022-09-20T02:03:25.497Z,9.81
2022-09-20T02:06:07.276Z,9.73
2022-09-20T02:08:39.852Z,9.64
2022-09-20T02:11:23.490Z,9.61
2022-09-20T02:14:23.519Z,9.55
2022-09-20T02:16:57.118Z,9.54
2022-09-20T02:19:24.051Z,9.59
2022-09-20T02:22:00.945Z,9.54
2022-09-20T02:24:27.336Z,9.53
2022-09-20T02:27:38.601Z,9.49
2022-09-20T02:30:24.369Z,9.42
2022-09-20T02:33:15.744Z,9.38
2022-09-20T02:35:50.263Z,9.32
2022-09-20T02:38:47.436Z,9.28
2022-09-20T02:41:16.801Z,9.30
2022-09-20T02:43:56.743Z,9.24
2022-09-20T02:46:41.354Z,9.24
2022-09-20T02:49:34.157Z,9.22
2022-09-20T02:52:31.263Z,9.18
2022-09-20T02:55:04.485Z,9.13
2022-09-20T02:58:18.479Z,9.11
2022-09-20T03:01:14.711Z,8.97
2022-09-20T03:03:48.836Z,8.94
2022-09-20T03:06:23.375Z,8.92
2022-09-20T03:09:17.188Z,8.86
2022-09-20T03:11:49.136Z,8.83
2022-09-20T03:14:27.570Z,8.75
2022-09-20T03:17:09.305Z,8.70
2022-09-20T03:19:51.426Z,8.64
2022-09-20T03:22:32.826Z,8.60
2022-09-20T03:25:08.411Z,8.59
2022-09-20T03:27:59.268Z,8.54
2022-09-20T03:31:08.233Z,8.36
2022-09-20T03:33:45.967Z,8.43
2022-09-20T03:36:53.519Z,8.37
2022-09-20T03:39:39.197Z,8.34
2022-09-20T03:42:29.299Z,8.34
2022-09-20T03:44:55.780Z,8.30
2022-09-20T03:47:54.349Z,8.29
2022-09-20T03:50:33.952Z,8.21
2022-09-20T03:53:35.528Z,8.22
2022-09-20T03:56:35.342Z,8.19
2022-09-20T03:59:29.787Z,8.16
2022-09-20T04:02:40.142Z,8.14
2022-09-20T04:05:12.647Z,8.07
2022-09-20T04:08:00.571Z,8.10
2022-09-20T04:10:40.966Z,8.09
2022-09-20T04:13:34.963Z,8.13
2022-09-20T04:16:22.622Z,8.16
2022-09-20T04:19:09.450Z,8.18
2022-09-20T04:21:56.990Z,8.19
2022-09-20T04:24:41.691Z,8.17
2022-09-20T04:27:26.258Z,8.16
2022-09-20T04:30:01.928Z,8.12
2022-09-20T04:32:55.648Z,8.13
2022-09-20T04:36:18.510Z,8.11
2022-09-20T04:38:52.349Z,8.05
2022-09-20T04:41:34.476Z,8.05
2022-09-20T04:44:22.528Z,8.02
2022-09-20T04:47:00.975Z,8.01
2022-09-20T04:50:15.120Z,7.95
2022-09-20T04:53:04.622Z,7.92
2022-09-20T04:55:46.588Z,7.90
2022-09-20T04:58:37.481Z,7.86
2022-09-20T05:01:19.651Z,7.85
2022-09-20T05:03:49.976Z,7.84
2022-09-20T05:06:41.135Z,7.81
2022-09-20T05:09:45.035Z,7.79
2022-09-20T05:12:46.401Z,7.76
2022-09-20T05:15:38.324Z,7.77
2022-09-20T05:18:23.560Z,7.77
2022-09-20T05:21:07.054Z,7.80
2022-09-20T05:24:02.064Z,7.79
2022-09-20T05:26:47.083Z,7.83
2022-09-20T05:29:24.598Z,7.88
2022-09-20T05:32:10.685Z,7.94
2022-09-20T05:35:10.105Z,7.95
2022-09-20T05:38:04.520Z,8.05
2022-09-20T05:41:31.849Z,8.15
2022-09-20T05:44:19.957Z,8.23
2022-09-20T05:47:14.298Z,8.28
2022-09-20T05:50:08.572Z,8.33
2022-09-20T05:52:58.521Z,8.41
2022-09-20T05:55:30.716Z,8.49
2022-09-20T05:58:02.955Z,8.57
2022-09-20T06:00:53.992Z,8.68
2022-09-20T06:03:37.244Z,8.75
2022-09-20T06:06:06.362Z,8.87
2022-09-20T06:09:00.578Z,8.98
2022-09-20T06:11:38.354Z,9.13
2022-09-20T06:14:32.883Z,9.30
2022-09-20T06:17:02.300Z,9.39
2022-09-20T06:20:09.758Z,9.42
2022-09-20T06:22:47.177Z,9.46
2022-09-20T06:25:20.700Z,9.61
2022-09-20T06:27:51.202Z,9.69
2022-09-20T06:30:33.997Z,9.74
2022-09-20T06:33:13.654Z,9.82
2022-09-20T06:35:49.480Z,9.99
2022-09-20T06:39:01.959Z,10.20
2022-09-20T06:41:32.891Z,10.56
2022-09-20T06:44:01.258Z,10.58
2022-09-20T06:46:33.082Z,10.57
2022-09-20T06:48:59.799Z,10.61
2022-09-20T06:51:28.721Z,10.72
2022-09-20T06:53:57.446Z,10.68
2022-09-20T06:56:27.025Z,10.71
2022-09-20T06:58:54.039Z,10.68
2022-09-20T07:01:29.772Z,10.76
2022-09-20T07:03:58.253Z,10.80
2022-09-20T07:06:24.777Z,10.80
2022-09-20T07:08:51.303Z,10.76
2022-09-20T07:11:18.183Z,10.80
2022-09-20T07:13:45.899Z,10.80
2022-09-20T07:16:14.238Z,10.78
2022-09-20T07:18:44.211Z,10.72
2022-09-20T07:21:16.405Z,10.80
2022-09-20T07:23:45.824Z,10.94
2022-09-20T07:26:25.825Z,11.05
2022-09-20T07:28:53.181Z,11.21
2022-09-20T07:31:21.693Z,11.28
2022-09-20T07:33:49.206Z,11.33
2022-09-20T07:36:16.656Z,11.43
2022-09-20T07:38:48.485Z,11.46
2022-09-20T07:41:14.934Z,11.49
2022-09-20T07:43:41.417Z,11.44
2022-09-20T07:46:07.933Z,11.49
2022-09-20T07:48:36.819Z,11.63
2022-09-20T07:51:10.584Z,11.77
2022-09-20T07:53:38.063Z,11.88
2022-09-20T07:56:13.592Z,11.77
2022-09-20T07:58:40.979Z,11.79
2022-09-20T08:01:10.530Z,11.87
2022-09-20T08:03:37.992Z,11.94
2022-09-20T08:06:11.509Z,12.14
2022-09-20T08:08:40.640Z,12.29
2022-09-20T08:11:20.471Z,12.38
2022-09-20T08:14:19.694Z,12.50
2022-09-20T08:16:41.595Z,12.58
2022-09-20T08:19:08.729Z,12.65
2022-09-20T08:21:38.779Z,12.78
2022-09-20T08:24:05.431Z,12.78
2022-09-20T08:26:32.234Z,12.74
2022-09-20T08:29:00.059Z,12.87
2022-09-20T08:31:31.473Z,12.86
2022-09-20T08:33:59.109Z,12.99
2022-09-20T08:36:26.226Z,13.06
2022-09-20T08:41:58.474Z,13.01
2022-09-20T08:44:35.209Z,13.12
2022-09-20T08:47:35.870Z,13.18
2022-09-20T08:50:10.127Z,13.13
2022-09-20T08:52:39.830Z,12.97
2022-09-20T08:55:16.728Z,12.95
2022-09-20T08:57:44.656Z,12.85
2022-09-20T09:00:18.124Z,12.90
2022-09-20T09:02:45.793Z,12.74
2022-09-20T09:05:28.645Z,12.80
2022-09-20T09:07:55.150Z,12.84
2022-09-20T09:10:21.640Z,12.93
2022-09-20T09:12:49.677Z,13.01
2022-09-20T09:15:37.225Z,13.17
2022-09-20T09:18:05.900Z,13.25
2022-09-20T09:20:42.347Z,13.41
2022-09-20T09:23:19.584Z,13.37
2022-09-20T09:25:46.360Z,13.54
2022-09-20T09:28:14.709Z,13.52
2022-09-20T09:30:47.557Z,13.51
2022-09-20T09:33:20.158Z,13.39
2022-09-20T09:36:17.096Z,13.48
2022-09-20T09:38:45.852Z,13.66
2022-09-20T09:41:18.080Z,13.95
2022-09-20T09:43:59.393Z,14.29
2022-09-20T09:46:30.479Z,14.52
2022-09-20T09:49:15.656Z,14.93
2022-09-20T09:52:13.056Z,15.27
2022-09-20T09:54:52.959Z,15.40
2022-09-20T09:57:56.036Z,15.58
2022-09-20T10:00:27.198Z,15.72
2022-09-20T10:03:00.463Z,15.41
2022-09-20T10:06:01.755Z,15.32
2022-09-20T10:09:00.100Z,15.20
2022-09-20T10:11:43.099Z,15.15
2022-09-20T10:14:48.310Z,15.08
2022-09-20T10:17:27.130Z,15.02
2022-09-20T10:20:28.276Z,14.95
2022-09-20T10:23:39.496Z,15.02
2022-09-20T10:25:59.462Z,15.27
2022-09-20T10:28:52.145Z,15.56
2022-09-20T10:31:25.582Z,15.62
2022-09-20T10:34:18.450Z,15.73
2022-09-20T10:36:58.337Z,15.89
2022-09-20T10:39:36.405Z,15.81
2022-09-20T10:42:45.890Z,15.72
2022-09-20T10:45:43.906Z,15.67
2022-09-20T10:48:17.291Z,15.74
2022-09-20T10:51:11.075Z,15.70
2022-09-20T10:53:43.301Z,15.68
2022-09-20T10:56:33.501Z,15.85
2022-09-20T10:59:30.100Z,15.94
2022-09-20T11:02:23.911Z,15.87
2022-09-20T11:05:08.394Z,16.15
2022-09-20T11:07:43.608Z,16.06
2022-09-20T11:10:22.719Z,15.84
2022-09-20T11:13:08.638Z,15.86
2022-09-20T11:15:44.123Z,15.77
2022-09-20T11:18:23.738Z,15.76
2022-09-20T11:21:22.589Z,15.63
2022-09-20T11:23:57.826Z,15.50
2022-09-20T11:26:35.840Z,15.69
2022-09-20T11:29:20.086Z,15.64
2022-09-20T11:31:50.634Z,15.81
2022-09-20T11:34:26.482Z,15.90
2022-09-20T11:36:58.817Z,15.91
2022-09-20T11:39:30.564Z,15.90
2022-09-20T11:42:00.346Z,15.82
2022-09-20T11:44:27.836Z,15.80
2022-09-20T11:47:52.757Z,15.66
2022-09-20T11:50:33.060Z,15.42
2022-09-20T11:53:36.956Z,15.38
2022-09-20T11:56:11.192Z,15.54
2022-09-20T11:58:48.867Z,15.52
2022-09-20T12:01:28.429Z,15.49
2022-09-20T12:04:31.151Z,15.65
2022-09-20T12:07:05.895Z,15.85
2022-09-20T12:09:38.396Z,15.76
2022-09-20T12:12:45.615Z,15.88
2022-09-20T12:15:34.674Z,16.12
2022-09-20T12:18:04.348Z,16.35
2022-09-20T12:20:34.327Z,16.43
2022-09-20T12:23:38.343Z,16.40
2022-09-20T12:26:13.200Z,16.57
2022-09-20T12:28:56.973Z,16.50
2022-09-20T12:31:29.194Z,16.74
2022-09-20T12:34:10.745Z,16.64
2022-09-20T12:36:39.936Z,16.59
2022-09-20T12:39:21.662Z,16.36
2022-09-20T12:42:13.170Z,16.31
2022-09-20T12:44:42.961Z,16.40
2022-09-20T12:47:12.117Z,16.63
2022-09-20T12:50:06.447Z,16.47
2022-09-20T12:52:51.159Z,16.40
2022-09-20T12:55:32.273Z,16.35
2022-09-20T12:58:23.824Z,15.95
2022-09-20T13:00:57.921Z,15.77
2022-09-20T13:03:39.783Z,15.50
2022-09-20T13:06:10.878Z,15.55
2022-09-20T13:08:48.817Z,15.47
2022-09-20T13:11:28.036Z,15.47
2022-09-20T13:14:16.607Z,15.59
2022-09-20T13:17:01.284Z,15.56
2022-09-20T13:19:32.278Z,15.57
2022-09-20T13:22:13.124Z,15.49
2022-09-20T13:24:43.032Z,15.46
2022-09-20T13:27:45.158Z,15.45
2022-09-20T13:30:17.829Z,15.24
2022-09-20T13:32:44.909Z,15.26
2022-09-20T13:35:22.220Z,15.31
2022-09-20T13:38:07.273Z,15.40
2022-09-20T13:40:39.261Z,15.57
2022-09-20T13:43:23.579Z,15.93
2022-09-20T13:45:56.450Z,15.85
2022-09-20T13:48:30.350Z,15.77
2022-09-20T13:50:57.570Z,15.71
2022-09-20T13:53:42.609Z,15.79
2022-09-20T13:56:21.287Z,15.74
2022-09-20T13:58:48.851Z,15.89
2022-09-20T14:01:24.525Z,15.95
2022-09-20T14:03:51.191Z,15.98
2022-09-20T14:06:17.724Z,15.79
2022-09-20T14:08:50.541Z,15.43
2022-09-20T14:11:24.006Z,15.18
2022-09-20T14:13:54.216Z,14.96
2022-09-20T14:16:22.617Z,14.83
2022-09-20T14:18:49.619Z,14.68
2022-09-20T14:21:26.175Z,14.78
2022-09-20T14:24:02.182Z,14.72
2022-09-20T14:26:39.839Z,14.79
2022-09-20T14:29:34.053Z,14.76
2022-09-20T14:32:22.596Z,14.79
2022-09-20T14:34:55.245Z,14.86
2022-09-20T14:37:28.704Z,15.00
2022-09-20T14:39:57.885Z,14.89
2022-09-20T14:42:42.644Z,14.86
2022-09-20T14:45:25.273Z,14.86
2022-09-20T14:48:06.893Z,14.87
2022-09-20T14:50:45.247Z,14.91
2022-09-20T14:53:12.263Z,14.99
2022-09-20T14:55:42.275Z,14.98
2022-09-20T14:58:14.089Z,15.09
2022-09-20T15:00:53.889Z,15.23
2022-09-20T15:03:37.661Z,15.30
2022-09-20T15:06:04.805Z,15.31
2022-09-20T15:08:33.772Z,15.33
2022-09-20T15:11:00.266Z,15.29
2022-09-20T15:13:26.950Z,15.27
2022-09-20T15:15:54.190Z,15.18
2022-09-20T15:18:24.010Z,15.00
2022-09-20T15:20:51.072Z,14.89
2022-09-20T15:23:18.139Z,14.81
2022-09-20T15:25:45.197Z,14.66
2022-09-20T15:28:19.172Z,14.67
2022-09-20T15:30:47.332Z,14.77
2022-09-20T15:33:14.859Z,14.82
2022-09-20T15:35:42.573Z,14.82
2022-09-20T15:38:11.712Z,14.77
2022-09-20T15:40:43.233Z,14.79
2022-09-20T15:43:14.876Z,14.62
2022-09-20T15:46:24.821Z,14.43
2022-09-20T15:48:51.294Z,14.26
2022-09-20T15:51:17.795Z,14.14
2022-09-20T15:53:48.575Z,14.14
2022-09-20T15:56:23.899Z,14.31
2022-09-20T15:59:01.665Z,14.34
2022-09-20T16:01:35.522Z,14.40
2022-09-20T16:04:07.837Z,14.35
2022-09-20T16:06:34.687Z,14.29
2022-09-20T16:09:01.151Z,14.26
2022-09-20T16:11:28.077Z,14.08
2022-09-20T16:13:56.030Z,13.96
2022-09-20T16:16:23.519Z,13.80
2022-09-20T16:19:08.591Z,13.78
2022-09-20T16:21:36.477Z,13.79
2022-09-20T16:24:03.318Z,13.86
2022-09-20T16:26:31.344Z,13.85
2022-09-20T16:28:58.278Z,13.74
2022-09-20T16:31:39.858Z,13.68
2022-09-20T16:34:31.529Z,13.67
2022-09-20T16:37:01.408Z,13.52
2022-09-20T16:39:29.814Z,13.54
2022-09-20T16:42:07.545Z,13.53
2022-09-20T16:44:38.761Z,13.51
2022-09-20T16:47:08.842Z,13.56
2022-09-20T16:49:36.459Z,13.55
2022-09-20T16:52:08.674Z,13.46
2022-09-20T16:54:35.544Z,13.43
2022-09-20T16:57:02.001Z,13.37
2022-09-20T16:59:28.989Z,13.34
2022-09-20T17:01:55.681Z,13.25
2022-09-20T17:04:22.244Z,13.14
2022-09-20T17:06:50.173Z,13.09
2022-09-20T17:09:16.929Z,13.04
2022-09-20T17:11:49.520Z,12.96
2022-09-20T17:14:18.558Z,12.86
2022-09-20T17:16:48.410Z,12.78
2022-09-20T17:19:19.658Z,12.64
2022-09-20T17:21:51.078Z,12.60
2022-09-20T17:24:19.770Z,12.43
2022-09-20T17:26:46.298Z,12.37
2022-09-20T17:29:16.168Z,12.24
2022-09-20T17:31:48.794Z,12.20
2022-09-20T17:34:21.433Z,12.11
2022-09-20T17:36:48.789Z,12.02
2022-09-20T17:39:16.307Z,11.92
2022-09-20T17:41:48.244Z,11.85
2022-09-20T17:44:16.805Z,11.83
2022-09-20T17:46:45.591Z,11.72
2022-09-20T17:49:15.046Z,11.67
2022-09-20T17:51:49.707Z,11.61
2022-09-20T17:54:16.635Z,11.52
2022-09-20T17:56:48.791Z,11.49
2022-09-20T17:59:16.794Z,11.36
2022-09-20T18:01:44.984Z,11.35
2022-09-20T18:04:12.638Z,11.22
2022-09-20T18:06:42.441Z,11.10
2022-09-20T18:09:11.947Z,11.16
2022-09-20T18:11:45.362Z,11.12
2022-09-20T18:14:13.308Z,11.04
2022-09-20T18:16:40.416Z,10.95
2022-09-20T18:19:08.501Z,10.88
2022-09-20T18:21:36.176Z,10.83
2022-09-20T18:24:06.047Z,10.79
2022-09-20T18:26:32.867Z,10.81
2022-09-20T18:29:00.339Z,10.79
2022-09-20T18:31:36.143Z,10.75
2022-09-20T18:34:07.876Z,10.74
2022-09-20T18:36:38.421Z,10.78
2022-09-20T18:39:06.198Z,10.73
2022-09-20T18:41:35.271Z,10.73
2022-09-20T18:44:04.082Z,10.69
2022-09-20T18:46:31.447Z,10.67
2022-09-20T18:49:02.407Z,10.68
2022-09-20T18:51:29.067Z,10.61
2022-09-20T18:53:56.598Z,10.60
2022-09-20T18:56:26.318Z,10.57
2022-09-20T18:59:07.798Z,10.54
2022-09-20T19:01:40.127Z,10.54
2022-09-20T19:04:34.545Z,10.54
2022-09-20T19:07:10.819Z,10.48
2022-09-20T19:09:51.152Z,10.53
2022-09-20T19:12:48.519Z,10.50
2022-09-20T19:15:46.536Z,10.49
2022-09-20T19:18:27.972Z,10.52
2022-09-20T19:20:54.418Z,10.53
2022-09-20T19:23:36.134Z,10.52
2022-09-20T19:26:24.237Z,10.51
2022-09-20T19:28:55.035Z,10.48
2022-09-20T19:31:30.781Z,10.48
2022-09-20T19:33:59.780Z,10.54
2022-09-20T19:36:54.394Z,10.55
2022-09-20T19:39:42.097Z,10.48
2022-09-20T19:42:20.011Z,10.48
2022-09-20T19:45:20.975Z,10.52
2022-09-20T19:48:28.988Z,10.53
2022-09-20T19:50:57.381Z,10.48
2022-09-20T19:53:27.768Z,10.46
2022-09-20T19:56:21.566Z,10.49
2022-09-20T19:58:52.889Z,10.50
2022-09-20T20:01:22.633Z,10.48
2022-09-20T20:03:50.597Z,10.49
2022-09-20T20:06:31.201Z,10.43
2022-09-20T20:09:15.636Z,10.45
2022-09-20T20:12:00.424Z,10.45
2022-09-20T20:14:39.123Z,10.46
2022-09-20T20:17:15.682Z,10.46
2022-09-20T20:20:07.177Z,10.49
2022-09-20T20:22:39.810Z,10.52
2022-09-20T20:25:37.604Z,10.52
2022-09-20T20:28:04.068Z,10.57
2022-09-20T20:30:31.629Z,10.53
2022-09-20T20:32:58.158Z,10.64
2022-09-20T20:35:25.961Z,10.63
2022-09-20T20:37:53.488Z,10.63
2022-09-20T20:40:20.060Z,10.60
2022-09-20T20:42:47.838Z,10.66
2022-09-20T20:45:14.522Z,10.64
2022-09-20T20:47:42.192Z,10.66
2022-09-20T20:50:11.795Z,10.66
2022-09-20T20:52:38.827Z,10.69
2022-09-20T20:55:06.283Z,10.68
2022-09-20T20:57:34.292Z,10.70
2022-09-20T21:00:00.834Z,10.68
2022-09-20T21:02:27.469Z,10.73
2022-09-20T21:04:53.970Z,10.72
2022-09-20T21:07:20.477Z,10.68
2022-09-20T21:09:47.599Z,10.66
2022-09-20T21:12:14.779Z,10.61
2022-09-20T21:14:41.305Z,10.64
2022-09-20T21:17:08.397Z,10.57
2022-09-20T21:19:34.875Z,10.54
2022-09-20T21:22:01.437Z,10.54
2022-09-20T21:24:28.072Z,10.50
2022-09-20T21:26:54.541Z,10.43
2022-09-20T21:29:21.107Z,10.40
2022-09-20T21:31:47.659Z,10.34
2022-09-20T21:34:15.937Z,10.31
2022-09-20T21:36:44.563Z,10.26
2022-09-20T21:39:11.589Z,10.17
2022-09-20T21:41:39.061Z,10.10
2022-09-20T21:44:07.291Z,10.07
2022-09-20T21:46:40.194Z,9.93
2022-09-20T21:49:09.030Z,9.90
2022-09-20T21:51:37.157Z,9.89
2022-09-20T21:54:04.497Z,9.83
2022-09-20T21:56:33.726Z,9.75
2022-09-20T21:59:03.579Z,9.65
2022-09-20T22:01:35.914Z,9.61
2022-09-20T22:04:11.123Z,9.59
2022-09-20T22:06:40.414Z,9.52
2022-09-20T22:09:10.587Z,9.47
2022-09-20T22:11:40.827Z,9.37
2022-09-20T22:14:08.543Z,9.33
2022-09-20T22:16:37.965Z,9.28
2022-09-20T22:19:05.997Z,9.24
2022-09-20T22:21:35.462Z,9.17
2022-09-20T22:24:07.972Z,9.11
2022-09-20T22:26:43.505Z,9.06
2022-09-20T22:29:10.590Z,9.00
2022-09-20T22:31:44.916Z,8.91
2022-09-20T22:34:15.252Z,8.89
2022-09-20T22:36:42.608Z,8.91
2022-09-20T22:39:11.060Z,8.85
2022-09-20T22:41:39.232Z,8.79
2022-09-20T22:44:06.449Z,8.76
2022-09-20T22:46:34.115Z,8.73
2022-09-20T22:49:00.806Z,8.69
2022-09-20T22:51:31.492Z,8.68
2022-09-20T22:53:58.135Z,8.65
2022-09-20T22:56:29.972Z,8.67
2022-09-20T22:59:00.241Z,8.66
2022-09-20T23:01:32.050Z,8.66
2022-09-20T23:04:07.884Z,8.66
2022-09-20T23:06:38.727Z,8.67
2022-09-20T23:09:08.177Z,8.65
2022-09-20T23:11:36.058Z,8.66
2022-09-20T23:14:06.909Z,8.73
2022-09-20T23:16:36.428Z,8.72
2022-09-20T23:19:04.761Z,8.73
2022-09-20T23:21:31.752Z,8.79
2022-09-20T23:24:00.884Z,8.76
2022-09-20T23:26:30.214Z,8.85
2022-09-20T23:29:08.821Z,8.84
2022-09-20T23:31:37.187Z,8.87
2022-09-20T23:34:06.752Z,8.83
2022-09-20T23:36:36.404Z,8.88
2022-09-20T23:39:03.376Z,8.89
2022-09-20T23:41:30.283Z,8.78
2022-09-20T23:43:57.021Z,8.83
2022-09-20T23:46:25.829Z,8.89
2022-09-20T23:48:53.081Z,8.87
2022-09-20T23:51:22.738Z,8.85
2022-09-20T23:53:50.868Z,8.82
2022-09-20T23:56:18.124Z,8.79
2022-09-20T23:58:45.243Z,8.79
